sensor_id;sensor_type;location;lat;lon;timestamp;P1;durP1;ratioP1;P2;durP2;ratioP2
19016;SDS011;9641;51.494;6.670;2024-01-11T00:00:24;48.87;;;19.90;;
19016;SDS011;9641;51.494;6.670;2024-01-11T00:02:51;49.73;;;21.03;;
19016;SDS011;9641;51.494;6.670;2024-01-11T00:05:18;51.70;;;21.00;;
19016;SDS011;9641;51.494;6.670;2024-01-11T00:07:45;50.13;;;19.83;;
19016;SDS011;9641;51.494;6.670;2024-01-11T00:10:11;42.80;;;18.90;;
19016;SDS011;9641;51.494;6.670;2024-01-11T00:12:38;48.00;;;20.07;;
19016;SDS011;9641;51.494;6.670;2024-01-11T00:15:06;47.40;;;20.87;;
19016;SDS011;9641;51.494;6.670;2024-01-11T00:17:33;45.80;;;19.53;;
19016;SDS011;9641;51.494;6.670;2024-01-11T00:20:00;49.83;;;19.53;;
19016;SDS011;9641;51.494;6.670;2024-01-11T00:22:27;46.07;;;20.73;;
19016;SDS011;9641;51.494;6.670;2024-01-11T00:24:54;46.30;;;19.60;;
19016;SDS011;9641;51.494;6.670;2024-01-11T00:27:21;51.67;;;21.03;;
19016;SDS011;9641;51.494;6.670;2024-01-11T00:29:48;49.03;;;20.03;;
19016;SDS011;9641;51.494;6.670;2024-01-11T00:32:14;46.50;;;20.13;;
19016;SDS011;9641;51.494;6.670;2024-01-11T00:34:42;48.50;;;21.43;;
19016;SDS011;9641;51.494;6.670;2024-01-11T00:37:09;45.50;;;19.83;;
19016;SDS011;9641;51.494;6.670;2024-01-11T00:39:36;51.17;;;21.07;;
19016;SDS011;9641;51.494;6.670;2024-01-11T00:42:03;55.53;;;22.60;;
19016;SDS011;9641;51.494;6.670;2024-01-11T00:44:31;45.73;;;18.70;;
19016;SDS011;9641;51.494;6.670;2024-01-11T00:46:58;50.43;;;21.13;;
19016;SDS011;9641;51.494;6.670;2024-01-11T00:49:25;48.27;;;20.33;;
19016;SDS011;9641;51.494;6.670;2024-01-11T00:51:53;56.30;;;21.97;;
19016;SDS011;9641;51.494;6.670;2024-01-11T00:54:20;50.33;;;20.40;;
19016;SDS011;9641;51.494;6.670;2024-01-11T00:56:47;56.33;;;22.97;;
19016;SDS011;9641;51.494;6.670;2024-01-11T00:59:14;52.80;;;22.63;;
19016;SDS011;9641;51.494;6.670;2024-01-11T01:01:46;52.57;;;21.03;;
19016;SDS011;9641;51.494;6.670;2024-01-11T01:04:13;55.03;;;22.20;;
19016;SDS011;9641;51.494;6.670;2024-01-11T01:06:40;58.50;;;22.80;;
19016;SDS011;9641;51.494;6.670;2024-01-11T01:09:09;56.70;;;21.90;;
19016;SDS011;9641;51.494;6.670;2024-01-11T01:11:36;50.93;;;21.97;;
19016;SDS011;9641;51.494;6.670;2024-01-11T01:14:03;58.87;;;22.93;;
19016;SDS011;9641;51.494;6.670;2024-01-11T01:16:30;50.90;;;21.70;;
19016;SDS011;9641;51.494;6.670;2024-01-11T01:18:57;54.70;;;23.13;;
19016;SDS011;9641;51.494;6.670;2024-01-11T01:21:24;55.80;;;21.87;;
19016;SDS011;9641;51.494;6.670;2024-01-11T01:23:51;51.73;;;22.37;;
19016;SDS011;9641;51.494;6.670;2024-01-11T01:26:19;51.43;;;21.67;;
19016;SDS011;9641;51.494;6.670;2024-01-11T01:28:46;51.57;;;21.40;;
19016;SDS011;9641;51.494;6.670;2024-01-11T01:31:13;55.07;;;22.07;;
19016;SDS011;9641;51.494;6.670;2024-01-11T01:33:40;50.30;;;20.23;;
19016;SDS011;9641;51.494;6.670;2024-01-11T01:36:08;46.83;;;20.37;;
19016;SDS011;9641;51.494;6.670;2024-01-11T01:38:35;45.27;;;19.77;;
19016;SDS011;9641;51.494;6.670;2024-01-11T01:41:02;48.80;;;23.10;;
19016;SDS011;9641;51.494;6.670;2024-01-11T01:43:31;49.40;;;21.93;;
19016;SDS011;9641;51.494;6.670;2024-01-11T01:45:58;50.60;;;20.30;;
19016;SDS011;9641;51.494;6.670;2024-01-11T01:48:25;51.63;;;22.17;;
19016;SDS011;9641;51.494;6.670;2024-01-11T01:50:52;51.23;;;20.23;;
19016;SDS011;9641;51.494;6.670;2024-01-11T01:53:19;54.53;;;22.87;;
19016;SDS011;9641;51.494;6.670;2024-01-11T01:55:49;48.00;;;21.27;;
19016;SDS011;9641;51.494;6.670;2024-01-11T01:58:18;57.77;;;21.80;;
19016;SDS011;9641;51.494;6.670;2024-01-11T02:00:48;58.53;;;23.87;;
19016;SDS011;9641;51.494;6.670;2024-01-11T02:03:16;50.37;;;21.50;;
19016;SDS011;9641;51.494;6.670;2024-01-11T02:05:44;51.10;;;20.53;;
19016;SDS011;9641;51.494;6.670;2024-01-11T02:08:12;53.23;;;21.73;;
19016;SDS011;9641;51.494;6.670;2024-01-11T02:10:42;52.53;;;22.03;;
19016;SDS011;9641;51.494;6.670;2024-01-11T02:13:09;52.90;;;21.47;;
19016;SDS011;9641;51.494;6.670;2024-01-11T02:15:37;45.43;;;21.23;;
19016;SDS011;9641;51.494;6.670;2024-01-11T02:18:05;57.37;;;22.67;;
19016;SDS011;9641;51.494;6.670;2024-01-11T02:20:32;57.87;;;21.80;;
19016;SDS011;9641;51.494;6.670;2024-01-11T02:23:01;60.63;;;23.77;;
19016;SDS011;9641;51.494;6.670;2024-01-11T02:25:34;50.77;;;21.83;;
19016;SDS011;9641;51.494;6.670;2024-01-11T02:28:01;55.37;;;22.37;;
19016;SDS011;9641;51.494;6.670;2024-01-11T02:30:28;61.10;;;24.27;;
19016;SDS011;9641;51.494;6.670;2024-01-11T02:32:55;56.53;;;24.37;;
19016;SDS011;9641;51.494;6.670;2024-01-11T02:35:22;56.30;;;21.70;;
19016;SDS011;9641;51.494;6.670;2024-01-11T02:37:50;61.83;;;23.03;;
19016;SDS011;9641;51.494;6.670;2024-01-11T02:40:17;53.40;;;22.40;;
19016;SDS011;9641;51.494;6.670;2024-01-11T02:42:47;52.83;;;21.33;;
19016;SDS011;9641;51.494;6.670;2024-01-11T02:45:13;56.73;;;22.47;;
19016;SDS011;9641;51.494;6.670;2024-01-11T02:47:40;53.53;;;21.53;;
19016;SDS011;9641;51.494;6.670;2024-01-11T02:50:07;55.43;;;22.40;;
19016;SDS011;9641;51.494;6.670;2024-01-11T02:52:36;58.87;;;23.57;;
19016;SDS011;9641;51.494;6.670;2024-01-11T02:55:03;57.57;;;23.33;;
19016;SDS011;9641;51.494;6.670;2024-01-11T02:57:31;52.73;;;22.63;;
19016;SDS011;9641;51.494;6.670;2024-01-11T02:59:59;61.63;;;23.00;;
19016;SDS011;9641;51.494;6.670;2024-01-11T03:02:26;56.50;;;23.43;;
19016;SDS011;9641;51.494;6.670;2024-01-11T03:04:52;58.47;;;22.10;;
19016;SDS011;9641;51.494;6.670;2024-01-11T03:07:19;54.77;;;22.00;;
19016;SDS011;9641;51.494;6.670;2024-01-11T03:09:46;50.83;;;21.40;;
19016;SDS011;9641;51.494;6.670;2024-01-11T03:12:13;64.70;;;23.37;;
19016;SDS011;9641;51.494;6.670;2024-01-11T03:14:40;59.43;;;23.93;;
19016;SDS011;9641;51.494;6.670;2024-01-11T03:17:09;49.03;;;20.67;;
19016;SDS011;9641;51.494;6.670;2024-01-11T03:19:38;56.80;;;23.23;;
19016;SDS011;9641;51.494;6.670;2024-01-11T03:22:05;50.37;;;21.30;;
19016;SDS011;9641;51.494;6.670;2024-01-11T03:24:32;47.27;;;22.40;;
19016;SDS011;9641;51.494;6.670;2024-01-11T03:26:59;57.90;;;22.03;;
19016;SDS011;9641;51.494;6.670;2024-01-11T03:29:26;52.80;;;22.40;;
19016;SDS011;9641;51.494;6.670;2024-01-11T03:31:53;56.60;;;22.70;;
19016;SDS011;9641;51.494;6.670;2024-01-11T03:34:21;52.90;;;21.53;;
19016;SDS011;9641;51.494;6.670;2024-01-11T03:36:48;51.80;;;21.43;;
19016;SDS011;9641;51.494;6.670;2024-01-11T03:39:15;47.80;;;21.00;;
19016;SDS011;9641;51.494;6.670;2024-01-11T03:41:43;54.37;;;23.07;;
19016;SDS011;9641;51.494;6.670;2024-01-11T03:44:11;55.20;;;21.40;;
19016;SDS011;9641;51.494;6.670;2024-01-11T03:46:38;56.57;;;22.60;;
19016;SDS011;9641;51.494;6.670;2024-01-11T03:49:05;47.00;;;21.73;;
19016;SDS011;9641;51.494;6.670;2024-01-11T03:51:34;55.37;;;23.67;;
19016;SDS011;9641;51.494;6.670;2024-01-11T03:54:01;49.23;;;22.17;;
19016;SDS011;9641;51.494;6.670;2024-01-11T03:56:27;54.47;;;23.70;;
19016;SDS011;9641;51.494;6.670;2024-01-11T03:58:54;59.73;;;21.43;;
19016;SDS011;9641;51.494;6.670;2024-01-11T04:01:21;56.83;;;22.87;;
19016;SDS011;9641;51.494;6.670;2024-01-11T04:03:48;56.63;;;22.80;;
19016;SDS011;9641;51.494;6.670;2024-01-11T04:06:19;48.07;;;21.87;;
19016;SDS011;9641;51.494;6.670;2024-01-11T04:08:48;58.63;;;23.20;;
19016;SDS011;9641;51.494;6.670;2024-01-11T04:11:16;54.87;;;22.10;;
19016;SDS011;9641;51.494;6.670;2024-01-11T04:13:43;50.63;;;21.87;;
19016;SDS011;9641;51.494;6.670;2024-01-11T04:16:09;55.93;;;23.77;;
19016;SDS011;9641;51.494;6.670;2024-01-11T04:18:36;60.23;;;23.73;;
19016;SDS011;9641;51.494;6.670;2024-01-11T04:21:03;53.83;;;21.17;;
19016;SDS011;9641;51.494;6.670;2024-01-11T04:23:30;51.63;;;21.50;;
19016;SDS011;9641;51.494;6.670;2024-01-11T04:25:58;52.57;;;21.87;;
19016;SDS011;9641;51.494;6.670;2024-01-11T04:28:25;54.13;;;22.17;;
19016;SDS011;9641;51.494;6.670;2024-01-11T04:30:53;50.30;;;22.03;;
19016;SDS011;9641;51.494;6.670;2024-01-11T04:33:20;56.07;;;23.33;;
19016;SDS011;9641;51.494;6.670;2024-01-11T04:35:46;56.47;;;23.50;;
19016;SDS011;9641;51.494;6.670;2024-01-11T04:38:13;57.03;;;23.33;;
19016;SDS011;9641;51.494;6.670;2024-01-11T04:40:40;63.90;;;23.23;;
19016;SDS011;9641;51.494;6.670;2024-01-11T04:43:08;52.23;;;23.77;;
19016;SDS011;9641;51.494;6.670;2024-01-11T04:45:35;57.00;;;24.10;;
19016;SDS011;9641;51.494;6.670;2024-01-11T04:48:03;54.87;;;23.67;;
19016;SDS011;9641;51.494;6.670;2024-01-11T04:50:30;56.57;;;24.00;;
19016;SDS011;9641;51.494;6.670;2024-01-11T04:52:57;54.10;;;21.87;;
19016;SDS011;9641;51.494;6.670;2024-01-11T04:55:24;53.60;;;22.93;;
19016;SDS011;9641;51.494;6.670;2024-01-11T04:57:50;59.90;;;24.00;;
19016;SDS011;9641;51.494;6.670;2024-01-11T05:00:19;54.37;;;21.87;;
19016;SDS011;9641;51.494;6.670;2024-01-11T05:02:46;61.03;;;22.60;;
19016;SDS011;9641;51.494;6.670;2024-01-11T05:05:12;63.70;;;24.10;;
19016;SDS011;9641;51.494;6.670;2024-01-11T05:07:39;57.00;;;23.40;;
19016;SDS011;9641;51.494;6.670;2024-01-11T05:10:07;64.53;;;24.00;;
19016;SDS011;9641;51.494;6.670;2024-01-11T05:12:35;50.87;;;21.40;;
19016;SDS011;9641;51.494;6.670;2024-01-11T05:15:03;51.17;;;23.20;;
19016;SDS011;9641;51.494;6.670;2024-01-11T05:17:34;62.23;;;23.87;;
19016;SDS011;9641;51.494;6.670;2024-01-11T05:20:01;55.17;;;23.10;;
19016;SDS011;9641;51.494;6.670;2024-01-11T05:22:28;53.80;;;22.43;;
19016;SDS011;9641;51.494;6.670;2024-01-11T05:24:55;52.30;;;20.90;;
19016;SDS011;9641;51.494;6.670;2024-01-11T05:27:22;63.90;;;22.80;;
19016;SDS011;9641;51.494;6.670;2024-01-11T05:29:48;53.70;;;19.60;;
19016;SDS011;9641;51.494;6.670;2024-01-11T05:32:15;55.57;;;20.73;;
19016;SDS011;9641;51.494;6.670;2024-01-11T05:34:43;51.87;;;22.33;;
19016;SDS011;9641;51.494;6.670;2024-01-11T05:37:10;52.43;;;21.53;;
19016;SDS011;9641;51.494;6.670;2024-01-11T05:39:37;51.83;;;22.70;;
19016;SDS011;9641;51.494;6.670;2024-01-11T05:42:04;55.77;;;20.93;;
19016;SDS011;9641;51.494;6.670;2024-01-11T05:44:32;51.07;;;21.00;;
19016;SDS011;9641;51.494;6.670;2024-01-11T05:46:58;61.37;;;24.10;;
19016;SDS011;9641;51.494;6.670;2024-01-11T05:49:25;54.43;;;22.57;;
19016;SDS011;9641;51.494;6.670;2024-01-11T05:51:53;57.60;;;21.47;;
19016;SDS011;9641;51.494;6.670;2024-01-11T05:54:20;51.27;;;21.87;;
19016;SDS011;9641;51.494;6.670;2024-01-11T05:56:47;60.23;;;24.23;;
19016;SDS011;9641;51.494;6.670;2024-01-11T05:59:15;55.83;;;24.07;;
19016;SDS011;9641;51.494;6.670;2024-01-11T06:01:42;60.63;;;21.80;;
19016;SDS011;9641;51.494;6.670;2024-01-11T06:04:08;56.77;;;22.80;;
19016;SDS011;9641;51.494;6.670;2024-01-11T06:06:35;50.90;;;22.83;;
19016;SDS011;9641;51.494;6.670;2024-01-11T06:09:03;65.17;;;24.53;;
19016;SDS011;9641;51.494;6.670;2024-01-11T06:11:30;48.40;;;21.80;;
19016;SDS011;9641;51.494;6.670;2024-01-11T06:13:57;49.23;;;21.43;;
19016;SDS011;9641;51.494;6.670;2024-01-11T06:16:25;52.27;;;22.33;;
19016;SDS011;9641;51.494;6.670;2024-01-11T06:18:52;51.73;;;21.27;;
19016;SDS011;9641;51.494;6.670;2024-01-11T06:21:19;56.47;;;22.50;;
19016;SDS011;9641;51.494;6.670;2024-01-11T06:23:46;53.93;;;23.07;;
19016;SDS011;9641;51.494;6.670;2024-01-11T06:26:15;51.03;;;22.63;;
19016;SDS011;9641;51.494;6.670;2024-01-11T06:28:42;49.67;;;21.00;;
19016;SDS011;9641;51.494;6.670;2024-01-11T06:31:09;47.53;;;21.33;;
19016;SDS011;9641;51.494;6.670;2024-01-11T06:33:37;53.50;;;23.27;;
19016;SDS011;9641;51.494;6.670;2024-01-11T06:36:04;63.83;;;23.73;;
19016;SDS011;9641;51.494;6.670;2024-01-11T06:38:32;57.47;;;22.73;;
19016;SDS011;9641;51.494;6.670;2024-01-11T06:40:59;57.60;;;22.73;;
19016;SDS011;9641;51.494;6.670;2024-01-11T06:43:27;56.67;;;22.20;;
19016;SDS011;9641;51.494;6.670;2024-01-11T06:45:54;53.17;;;23.30;;
19016;SDS011;9641;51.494;6.670;2024-01-11T06:48:21;63.43;;;23.10;;
19016;SDS011;9641;51.494;6.670;2024-01-11T06:50:48;52.20;;;21.57;;
19016;SDS011;9641;51.494;6.670;2024-01-11T06:53:14;63.47;;;22.30;;
19016;SDS011;9641;51.494;6.670;2024-01-11T06:55:41;70.13;;;28.27;;
19016;SDS011;9641;51.494;6.670;2024-01-11T06:58:09;62.07;;;25.40;;
19016;SDS011;9641;51.494;6.670;2024-01-11T07:00:37;63.83;;;26.13;;
19016;SDS011;9641;51.494;6.670;2024-01-11T07:03:08;61.00;;;22.97;;
19016;SDS011;9641;51.494;6.670;2024-01-11T07:05:35;56.97;;;24.37;;
19016;SDS011;9641;51.494;6.670;2024-01-11T07:08:02;58.63;;;24.43;;
19016;SDS011;9641;51.494;6.670;2024-01-11T07:10:30;50.27;;;22.43;;
19016;SDS011;9641;51.494;6.670;2024-01-11T07:12:57;50.53;;;22.50;;
19016;SDS011;9641;51.494;6.670;2024-01-11T07:15:24;55.13;;;22.00;;
19016;SDS011;9641;51.494;6.670;2024-01-11T07:17:52;61.13;;;22.50;;
19016;SDS011;9641;51.494;6.670;2024-01-11T07:20:19;53.87;;;22.43;;
19016;SDS011;9641;51.494;6.670;2024-01-11T07:22:46;57.53;;;22.70;;
19016;SDS011;9641;51.494;6.670;2024-01-11T07:25:13;63.33;;;22.43;;
19016;SDS011;9641;51.494;6.670;2024-01-11T07:27:40;62.63;;;24.57;;
19016;SDS011;9641;51.494;6.670;2024-01-11T07:30:07;64.97;;;23.40;;
19016;SDS011;9641;51.494;6.670;2024-01-11T07:32:35;51.77;;;21.03;;
19016;SDS011;9641;51.494;6.670;2024-01-11T07:35:05;59.80;;;23.10;;
19016;SDS011;9641;51.494;6.670;2024-01-11T07:37:32;48.60;;;21.13;;
19016;SDS011;9641;51.494;6.670;2024-01-11T07:39:59;54.37;;;22.40;;
19016;SDS011;9641;51.494;6.670;2024-01-11T07:42:26;43.00;;;21.00;;
19016;SDS011;9641;51.494;6.670;2024-01-11T07:44:53;57.90;;;21.37;;
19016;SDS011;9641;51.494;6.670;2024-01-11T07:47:20;51.90;;;21.07;;
19016;SDS011;9641;51.494;6.670;2024-01-11T07:49:47;63.37;;;24.73;;
19016;SDS011;9641;51.494;6.670;2024-01-11T07:52:15;59.23;;;23.97;;
19016;SDS011;9641;51.494;6.670;2024-01-11T07:54:42;51.83;;;21.60;;
19016;SDS011;9641;51.494;6.670;2024-01-11T07:57:09;49.33;;;21.70;;
19016;SDS011;9641;51.494;6.670;2024-01-11T07:59:36;53.60;;;24.33;;
19016;SDS011;9641;51.494;6.670;2024-01-11T08:02:03;69.37;;;27.10;;
19016;SDS011;9641;51.494;6.670;2024-01-11T08:04:31;59.23;;;23.93;;
19016;SDS011;9641;51.494;6.670;2024-01-11T08:06:57;52.47;;;22.60;;
19016;SDS011;9641;51.494;6.670;2024-01-11T08:09:26;53.57;;;24.73;;
19016;SDS011;9641;51.494;6.670;2024-01-11T08:11:53;50.17;;;22.47;;
19016;SDS011;9641;51.494;6.670;2024-01-11T08:14:20;56.77;;;23.97;;
19016;SDS011;9641;51.494;6.670;2024-01-11T08:16:47;48.83;;;23.40;;
19016;SDS011;9641;51.494;6.670;2024-01-11T08:19:14;49.90;;;22.57;;
19016;SDS011;9641;51.494;6.670;2024-01-11T08:21:41;59.40;;;24.50;;
19016;SDS011;9641;51.494;6.670;2024-01-11T08:24:09;69.00;;;24.30;;
19016;SDS011;9641;51.494;6.670;2024-01-11T08:26:37;60.07;;;23.27;;
19016;SDS011;9641;51.494;6.670;2024-01-11T08:29:04;56.07;;;24.37;;
19016;SDS011;9641;51.494;6.670;2024-01-11T08:31:31;53.23;;;22.63;;
19016;SDS011;9641;51.494;6.670;2024-01-11T08:34:00;46.97;;;20.50;;
19016;SDS011;9641;51.494;6.670;2024-01-11T08:36:30;54.40;;;21.97;;
19016;SDS011;9641;51.494;6.670;2024-01-11T08:38:59;54.50;;;23.13;;
19016;SDS011;9641;51.494;6.670;2024-01-11T08:41:26;57.27;;;22.27;;
19016;SDS011;9641;51.494;6.670;2024-01-11T08:43:54;55.20;;;21.77;;
19016;SDS011;9641;51.494;6.670;2024-01-11T08:46:24;51.20;;;22.53;;
19016;SDS011;9641;51.494;6.670;2024-01-11T08:48:51;53.57;;;21.93;;
19016;SDS011;9641;51.494;6.670;2024-01-11T08:51:19;56.70;;;22.70;;
19016;SDS011;9641;51.494;6.670;2024-01-11T08:53:46;48.50;;;20.23;;
19016;SDS011;9641;51.494;6.670;2024-01-11T08:56:13;55.57;;;21.70;;
19016;SDS011;9641;51.494;6.670;2024-01-11T08:58:41;59.10;;;23.90;;
19016;SDS011;9641;51.494;6.670;2024-01-11T09:01:10;53.83;;;22.13;;
19016;SDS011;9641;51.494;6.670;2024-01-11T09:03:37;45.63;;;20.83;;
19016;SDS011;9641;51.494;6.670;2024-01-11T09:06:04;59.00;;;23.23;;
19016;SDS011;9641;51.494;6.670;2024-01-11T09:08:31;53.23;;;22.17;;
19016;SDS011;9641;51.494;6.670;2024-01-11T09:10:58;50.40;;;23.43;;
19016;SDS011;9641;51.494;6.670;2024-01-11T09:13:26;48.73;;;20.60;;
19016;SDS011;9641;51.494;6.670;2024-01-11T09:15:53;54.43;;;22.43;;
19016;SDS011;9641;51.494;6.670;2024-01-11T09:18:22;47.10;;;21.90;;
19016;SDS011;9641;51.494;6.670;2024-01-11T09:20:49;52.07;;;21.77;;
19016;SDS011;9641;51.494;6.670;2024-01-11T09:23:16;52.33;;;22.67;;
19016;SDS011;9641;51.494;6.670;2024-01-11T09:25:43;54.90;;;23.27;;
19016;SDS011;9641;51.494;6.670;2024-01-11T09:28:10;51.23;;;23.07;;
19016;SDS011;9641;51.494;6.670;2024-01-11T09:30:37;50.00;;;21.67;;
19016;SDS011;9641;51.494;6.670;2024-01-11T09:33:04;58.93;;;22.43;;
19016;SDS011;9641;51.494;6.670;2024-01-11T09:35:32;57.60;;;23.60;;
19016;SDS011;9641;51.494;6.670;2024-01-11T09:38:00;53.40;;;23.60;;
19016;SDS011;9641;51.494;6.670;2024-01-11T09:40:27;53.60;;;24.00;;
19016;SDS011;9641;51.494;6.670;2024-01-11T09:42:54;51.43;;;24.33;;
19016;SDS011;9641;51.494;6.670;2024-01-11T09:45:21;50.70;;;23.70;;
19016;SDS011;9641;51.494;6.670;2024-01-11T09:47:48;51.70;;;22.97;;
19016;SDS011;9641;51.494;6.670;2024-01-11T09:50:17;52.43;;;22.90;;
19016;SDS011;9641;51.494;6.670;2024-01-11T09:52:46;49.33;;;22.07;;
19016;SDS011;9641;51.494;6.670;2024-01-11T09:55:14;57.00;;;24.90;;
19016;SDS011;9641;51.494;6.670;2024-01-11T09:57:43;57.40;;;25.43;;
19016;SDS011;9641;51.494;6.670;2024-01-11T10:00:12;58.90;;;25.20;;
19016;SDS011;9641;51.494;6.670;2024-01-11T10:02:43;58.13;;;24.73;;
19016;SDS011;9641;51.494;6.670;2024-01-11T10:05:10;58.87;;;24.73;;
19016;SDS011;9641;51.494;6.670;2024-01-11T10:07:39;63.03;;;24.73;;
19016;SDS011;9641;51.494;6.670;2024-01-11T10:10:08;59.10;;;23.97;;
19016;SDS011;9641;51.494;6.670;2024-01-11T10:12:36;60.37;;;25.07;;
19016;SDS011;9641;51.494;6.670;2024-01-11T10:15:04;59.47;;;25.20;;
19016;SDS011;9641;51.494;6.670;2024-01-11T10:17:34;63.77;;;27.53;;
19016;SDS011;9641;51.494;6.670;2024-01-11T10:20:01;50.93;;;23.33;;
19016;SDS011;9641;51.494;6.670;2024-01-11T10:22:28;58.07;;;22.67;;
19016;SDS011;9641;51.494;6.670;2024-01-11T10:25:09;52.73;;;24.53;;
19016;SDS011;9641;51.494;6.670;2024-01-11T10:27:37;57.00;;;23.53;;
19016;SDS011;9641;51.494;6.670;2024-01-11T10:30:04;47.40;;;21.37;;
19016;SDS011;9641;51.494;6.670;2024-01-11T10:32:33;47.57;;;21.77;;
19016;SDS011;9641;51.494;6.670;2024-01-11T10:35:00;50.03;;;22.03;;
19016;SDS011;9641;51.494;6.670;2024-01-11T10:37:30;49.13;;;22.33;;
19016;SDS011;9641;51.494;6.670;2024-01-11T10:39:58;45.00;;;20.67;;
19016;SDS011;9641;51.494;6.670;2024-01-11T10:42:30;53.47;;;21.57;;
19016;SDS011;9641;51.494;6.670;2024-01-11T10:44:59;52.57;;;21.90;;
19016;SDS011;9641;51.494;6.670;2024-01-11T10:47:30;54.70;;;21.90;;
19016;SDS011;9641;51.494;6.670;2024-01-11T10:49:57;42.10;;;21.27;;
19016;SDS011;9641;51.494;6.670;2024-01-11T10:52:38;47.50;;;21.40;;
19016;SDS011;9641;51.494;6.670;2024-01-11T10:55:09;56.23;;;22.47;;
19016;SDS011;9641;51.494;6.670;2024-01-11T10:57:38;46.93;;;20.43;;
19016;SDS011;9641;51.494;6.670;2024-01-11T11:00:06;43.13;;;21.07;;
19016;SDS011;9641;51.494;6.670;2024-01-11T11:02:37;43.00;;;20.83;;
19016;SDS011;9641;51.494;6.670;2024-01-11T11:05:05;39.83;;;20.10;;
19016;SDS011;9641;51.494;6.670;2024-01-11T11:07:35;39.70;;;20.73;;
19016;SDS011;9641;51.494;6.670;2024-01-11T11:10:03;48.83;;;24.37;;
19016;SDS011;9641;51.494;6.670;2024-01-11T11:12:34;46.13;;;20.80;;
19016;SDS011;9641;51.494;6.670;2024-01-11T11:15:06;43.90;;;21.20;;
19016;SDS011;9641;51.494;6.670;2024-01-11T11:17:36;39.13;;;18.90;;
19016;SDS011;9641;51.494;6.670;2024-01-11T11:20:03;40.83;;;20.07;;
19016;SDS011;9641;51.494;6.670;2024-01-11T11:22:33;41.80;;;19.00;;
19016;SDS011;9641;51.494;6.670;2024-01-11T11:25:04;41.17;;;20.17;;
19016;SDS011;9641;51.494;6.670;2024-01-11T11:27:34;43.87;;;20.83;;
19016;SDS011;9641;51.494;6.670;2024-01-11T11:30:02;38.37;;;19.00;;
19016;SDS011;9641;51.494;6.670;2024-01-11T11:32:38;37.70;;;19.97;;
19016;SDS011;9641;51.494;6.670;2024-01-11T11:35:09;44.83;;;20.63;;
19016;SDS011;9641;51.494;6.670;2024-01-11T11:37:37;34.40;;;18.80;;
19016;SDS011;9641;51.494;6.670;2024-01-11T11:40:04;33.87;;;18.97;;
19016;SDS011;9641;51.494;6.670;2024-01-11T11:42:33;39.23;;;20.27;;
19016;SDS011;9641;51.494;6.670;2024-01-11T11:45:00;41.57;;;20.47;;
19016;SDS011;9641;51.494;6.670;2024-01-11T11:47:33;36.93;;;19.13;;
19016;SDS011;9641;51.494;6.670;2024-01-11T11:50:06;37.37;;;18.97;;
19016;SDS011;9641;51.494;6.670;2024-01-11T11:52:36;40.43;;;21.47;;
19016;SDS011;9641;51.494;6.670;2024-01-11T11:55:05;39.40;;;20.33;;
19016;SDS011;9641;51.494;6.670;2024-01-11T11:57:34;40.40;;;20.40;;
19016;SDS011;9641;51.494;6.670;2024-01-11T12:00:02;53.33;;;28.97;;
19016;SDS011;9641;51.494;6.670;2024-01-11T12:02:36;44.63;;;23.27;;
19016;SDS011;9641;51.494;6.670;2024-01-11T12:05:04;34.00;;;18.93;;
19016;SDS011;9641;51.494;6.670;2024-01-11T12:07:32;36.67;;;20.70;;
19016;SDS011;9641;51.494;6.670;2024-01-11T12:09:59;32.70;;;18.13;;
19016;SDS011;9641;51.494;6.670;2024-01-11T12:12:26;33.23;;;18.87;;
19016;SDS011;9641;51.494;6.670;2024-01-11T12:14:54;37.93;;;19.33;;
19016;SDS011;9641;51.494;6.670;2024-01-11T12:17:21;33.63;;;17.53;;
19016;SDS011;9641;51.494;6.670;2024-01-11T12:19:48;35.70;;;18.23;;
19016;SDS011;9641;51.494;6.670;2024-01-11T12:22:17;30.43;;;16.70;;
19016;SDS011;9641;51.494;6.670;2024-01-11T12:24:45;31.53;;;16.73;;
19016;SDS011;9641;51.494;6.670;2024-01-11T12:27:12;29.33;;;16.77;;
19016;SDS011;9641;51.494;6.670;2024-01-11T12:29:39;30.93;;;16.37;;
19016;SDS011;9641;51.494;6.670;2024-01-11T12:32:06;30.53;;;16.47;;
19016;SDS011;9641;51.494;6.670;2024-01-11T12:34:36;31.77;;;16.77;;
19016;SDS011;9641;51.494;6.670;2024-01-11T12:37:05;29.00;;;16.67;;
19016;SDS011;9641;51.494;6.670;2024-01-11T12:39:33;26.13;;;15.30;;
19016;SDS011;9641;51.494;6.670;2024-01-11T12:42:03;27.87;;;14.93;;
19016;SDS011;9641;51.494;6.670;2024-01-11T12:44:30;26.20;;;15.13;;
19016;SDS011;9641;51.494;6.670;2024-01-11T12:46:58;28.00;;;15.90;;
19016;SDS011;9641;51.494;6.670;2024-01-11T12:49:25;26.33;;;14.53;;
19016;SDS011;9641;51.494;6.670;2024-01-11T12:51:52;31.57;;;15.63;;
19016;SDS011;9641;51.494;6.670;2024-01-11T12:54:20;25.10;;;15.90;;
19016;SDS011;9641;51.494;6.670;2024-01-11T12:56:48;24.27;;;14.73;;
19016;SDS011;9641;51.494;6.670;2024-01-11T12:59:15;28.20;;;15.60;;
19016;SDS011;9641;51.494;6.670;2024-01-11T13:01:42;28.67;;;15.53;;
19016;SDS011;9641;51.494;6.670;2024-01-11T13:04:09;27.93;;;15.40;;
19016;SDS011;9641;51.494;6.670;2024-01-11T13:06:36;29.10;;;16.17;;
19016;SDS011;9641;51.494;6.670;2024-01-11T13:09:03;28.23;;;16.13;;
19016;SDS011;9641;51.494;6.670;2024-01-11T13:11:33;25.83;;;15.93;;
19016;SDS011;9641;51.494;6.670;2024-01-11T13:14:01;31.30;;;16.93;;
19016;SDS011;9641;51.494;6.670;2024-01-11T13:16:31;23.70;;;14.57;;
19016;SDS011;9641;51.494;6.670;2024-01-11T13:18:59;27.43;;;15.53;;
19016;SDS011;9641;51.494;6.670;2024-01-11T13:21:26;29.70;;;16.07;;
19016;SDS011;9641;51.494;6.670;2024-01-11T13:23:53;26.43;;;15.40;;
19016;SDS011;9641;51.494;6.670;2024-01-11T13:26:19;24.50;;;15.93;;
19016;SDS011;9641;51.494;6.670;2024-01-11T13:28:46;33.10;;;16.20;;
19016;SDS011;9641;51.494;6.670;2024-01-11T13:31:14;30.03;;;15.27;;
19016;SDS011;9641;51.494;6.670;2024-01-11T13:33:41;24.00;;;14.20;;
19016;SDS011;9641;51.494;6.670;2024-01-11T13:36:08;28.53;;;15.53;;
19016;SDS011;9641;51.494;6.670;2024-01-11T13:38:35;31.37;;;15.30;;
19016;SDS011;9641;51.494;6.670;2024-01-11T13:41:02;26.27;;;15.20;;
19016;SDS011;9641;51.494;6.670;2024-01-11T13:43:30;25.67;;;14.37;;
19016;SDS011;9641;51.494;6.670;2024-01-11T13:45:57;27.27;;;15.77;;
19016;SDS011;9641;51.494;6.670;2024-01-11T13:48:25;26.20;;;15.50;;
19016;SDS011;9641;51.494;6.670;2024-01-11T13:50:52;26.33;;;14.77;;
19016;SDS011;9641;51.494;6.670;2024-01-11T13:53:19;23.80;;;13.70;;
19016;SDS011;9641;51.494;6.670;2024-01-11T13:55:45;25.80;;;15.20;;
19016;SDS011;9641;51.494;6.670;2024-01-11T13:58:13;25.07;;;13.83;;
19016;SDS011;9641;51.494;6.670;2024-01-11T14:00:40;26.47;;;15.00;;
19016;SDS011;9641;51.494;6.670;2024-01-11T14:03:07;28.70;;;13.87;;
19016;SDS011;9641;51.494;6.670;2024-01-11T14:05:37;25.43;;;14.80;;
19016;SDS011;9641;51.494;6.670;2024-01-11T14:08:04;24.57;;;13.90;;
19016;SDS011;9641;51.494;6.670;2024-01-11T14:10:32;26.13;;;14.30;;
19016;SDS011;9641;51.494;6.670;2024-01-11T14:13:00;31.03;;;14.20;;
19016;SDS011;9641;51.494;6.670;2024-01-11T14:15:27;28.13;;;14.60;;
19016;SDS011;9641;51.494;6.670;2024-01-11T14:17:54;24.50;;;13.57;;
19016;SDS011;9641;51.494;6.670;2024-01-11T14:20:21;22.57;;;12.60;;
19016;SDS011;9641;51.494;6.670;2024-01-11T14:22:50;23.80;;;13.43;;
19016;SDS011;9641;51.494;6.670;2024-01-11T14:25:17;24.20;;;12.63;;
19016;SDS011;9641;51.494;6.670;2024-01-11T14:27:45;23.27;;;12.00;;
19016;SDS011;9641;51.494;6.670;2024-01-11T14:30:13;21.13;;;11.80;;
19016;SDS011;9641;51.494;6.670;2024-01-11T14:32:40;22.53;;;12.00;;
19016;SDS011;9641;51.494;6.670;2024-01-11T14:35:07;21.60;;;11.37;;